createdAt,value
2023-05-19T03:05:08.613Z,12.11
2023-05-19T03:07:37.199Z,12.13
2023-05-19T03:10:06.943Z,12.15
2023-05-19T03:12:35.372Z,12.15
2023-05-19T03:15:03.906Z,12.09
2023-05-19T03:17:34.532Z,12.12
2023-05-19T03:20:02.814Z,12.11
2023-05-19T03:22:31.038Z,12.10
2023-05-19T03:24:59.199Z,12.11
2023-05-19T03:27:27.277Z,12.11
2023-05-19T03:29:56.158Z,12.12
2023-05-19T03:32:24.536Z,12.11
2023-05-19T03:34:53.236Z,12.14
2023-05-19T03:39:49.772Z,12.26
2023-05-19T03:42:17.949Z,12.27
2023-05-19T03:44:46.387Z,12.27
2023-05-19T03:47:14.747Z,12.34
2023-05-19T03:50:09.969Z,12.39
2023-05-19T03:54:08.759Z,12.35
2023-05-19T03:56:40.009Z,12.40
2023-05-19T03:59:11.015Z,12.39
2023-05-19T04:01:39.640Z,12.43
2023-05-19T04:04:08.221Z,12.41
2023-05-19T04:06:37.994Z,12.37
2023-05-19T04:09:14.801Z,12.37
2023-05-19T04:11:43.300Z,12.39
2023-05-19T04:14:11.588Z,12.44
2023-05-19T04:16:40.444Z,12.46
2023-05-19T04:19:08.920Z,12.48
2023-05-19T04:21:37.287Z,12.54
2023-05-19T04:24:06.768Z,12.61
2023-05-19T04:26:38.589Z,12.64
2023-05-19T04:29:07.156Z,12.69
2023-05-19T04:31:36.158Z,12.72
2023-05-19T04:34:04.998Z,12.74
2023-05-19T04:36:34.120Z,12.73
2023-05-19T04:39:12.369Z,12.69
2023-05-19T04:41:44.717Z,12.62
2023-05-19T04:44:18.465Z,12.64
2023-05-19T04:46:51.345Z,12.64
2023-05-19T04:49:19.593Z,12.67
2023-05-19T04:51:50.548Z,12.73
2023-05-19T04:54:19.948Z,12.75
2023-05-19T04:56:48.256Z,12.85
2023-05-19T04:59:16.890Z,12.92
2023-05-19T05:01:45.236Z,12.95
2023-05-19T05:04:13.822Z,12.97
2023-05-19T05:06:42.485Z,13.00
2023-05-19T05:09:11.732Z,13.06
2023-05-19T05:11:40.731Z,13.17
2023-05-19T05:14:11.865Z,13.29
2023-05-19T05:16:41.123Z,13.31
2023-05-19T05:19:09.899Z,13.40
2023-05-19T05:21:39.276Z,13.50
2023-05-19T05:24:08.992Z,13.54
2023-05-19T05:26:37.893Z,13.61
2023-05-19T05:29:10.501Z,13.70
2023-05-19T05:31:39.160Z,13.75
2023-05-19T05:34:07.740Z,13.77
2023-05-19T05:36:35.856Z,13.77
2023-05-19T05:39:03.946Z,13.75
2023-05-19T05:41:35.589Z,13.74
2023-05-19T05:44:08.985Z,13.75
2023-05-19T05:46:40.169Z,13.74
2023-05-19T05:49:08.727Z,13.75
2023-05-19T05:51:37.309Z,13.75
2023-05-19T05:54:07.798Z,13.79
2023-05-19T05:56:39.190Z,13.88
2023-05-19T05:59:08.765Z,14.00
2023-05-19T06:01:37.433Z,14.08
2023-05-19T06:04:07.270Z,14.18
2023-05-19T06:06:38.156Z,14.32
2023-05-19T06:09:08.422Z,14.37
2023-05-19T06:11:36.870Z,14.42
2023-05-19T06:14:05.879Z,14.40
2023-05-19T06:16:51.225Z,14.41
2023-05-19T06:19:20.397Z,14.45
2023-05-19T06:21:50.664Z,14.51
2023-05-19T06:24:18.805Z,14.59
2023-05-19T06:26:47.042Z,14.64
2023-05-19T06:29:17.231Z,14.73
2023-05-19T06:31:46.575Z,14.80
2023-05-19T06:34:17.858Z,14.92
2023-05-19T06:36:47.420Z,15.10
2023-05-19T06:39:15.868Z,15.24
2023-05-19T06:44:44.646Z,15.56
2023-05-19T06:47:13.402Z,15.68
2023-05-19T06:49:41.642Z,15.81
2023-05-19T06:52:09.893Z,15.84
2023-05-19T06:54:38.524Z,15.91
2023-05-19T06:57:07.411Z,15.98
2023-05-19T06:59:40.475Z,16.05
2023-05-19T07:02:08.691Z,16.14
2023-05-19T07:04:37.210Z,16.26
2023-05-19T07:07:05.836Z,16.39
2023-05-19T07:09:34.807Z,16.53
2023-05-19T07:12:04.236Z,16.60
2023-05-19T07:14:32.318Z,16.69
2023-05-19T07:17:00.568Z,16.80
2023-05-19T07:19:28.916Z,16.97
2023-05-19T07:21:59.122Z,17.11
2023-05-19T07:24:27.684Z,17.23
2023-05-19T07:26:55.966Z,17.37
2023-05-19T07:29:24.352Z,17.53
2023-05-19T07:31:58.110Z,17.64
2023-05-19T07:34:26.392Z,17.74
2023-05-19T07:36:55.997Z,17.83
2023-05-19T07:39:26.450Z,17.99
2023-05-19T07:41:55.921Z,18.07
2023-05-19T07:44:24.323Z,18.17
2023-05-19T07:46:53.035Z,18.28
2023-05-19T07:49:21.163Z,18.44
2023-05-19T07:51:49.669Z,18.60
2023-05-19T07:54:18.628Z,18.73
2023-05-19T07:56:47.433Z,18.91
2023-05-19T07:59:16.346Z,19.09
2023-05-19T08:01:44.406Z,19.27
2023-05-19T08:04:13.118Z,19.31
2023-05-19T08:06:42.861Z,19.33
2023-05-19T08:09:11.178Z,19.42
2023-05-19T08:11:39.179Z,19.54
2023-05-19T08:14:07.324Z,19.55
2023-05-19T08:16:35.540Z,19.62
2023-05-19T08:19:05.731Z,19.70
2023-05-19T08:21:34.756Z,19.81
2023-05-19T08:24:04.537Z,19.92
2023-05-19T08:26:32.615Z,20.00
2023-05-19T08:29:01.158Z,20.09
2023-05-19T08:31:29.746Z,20.19
2023-05-19T08:33:58.097Z,20.19
2023-05-19T08:36:26.332Z,20.20
2023-05-19T08:38:54.393Z,20.18
2023-05-19T08:41:23.458Z,20.19
2023-05-19T08:43:51.653Z,20.20
2023-05-19T08:46:21.941Z,20.21
2023-05-19T08:49:00.320Z,20.25
2023-05-19T08:51:50.540Z,20.27
2023-05-19T08:54:20.733Z,20.47
2023-05-19T08:56:49.162Z,20.64
2023-05-19T08:59:18.410Z,20.82
2023-05-19T09:01:47.640Z,20.92
2023-05-19T09:04:17.604Z,21.04
2023-05-19T09:06:45.950Z,21.18
2023-05-19T09:09:14.231Z,21.26
2023-05-19T09:11:46.468Z,21.35
2023-05-19T09:14:14.619Z,21.46
2023-05-19T09:16:43.698Z,21.48
2023-05-19T09:19:17.400Z,21.46
2023-05-19T09:21:45.962Z,21.49
2023-05-19T09:24:15.202Z,21.54
2023-05-19T09:26:43.313Z,21.66
2023-05-19T09:29:16.072Z,21.77
2023-05-19T09:31:56.226Z,21.82
2023-05-19T09:34:25.217Z,21.84
2023-05-19T09:36:54.345Z,21.91
2023-05-19T09:39:26.578Z,21.96
2023-05-19T09:41:56.487Z,22.00
2023-05-19T09:44:30.552Z,22.10
2023-05-19T09:47:00.059Z,22.15
2023-05-19T09:49:30.323Z,22.22
2023-05-19T09:51:59.656Z,22.28
2023-05-19T09:54:34.232Z,22.39
2023-05-19T09:57:07.748Z,22.49
2023-05-19T09:59:39.088Z,22.53
2023-05-19T10:02:16.840Z,22.53
2023-05-19T10:04:47.126Z,22.42
2023-05-19T10:07:17.684Z,22.43
2023-05-19T10:09:47.067Z,22.44
2023-05-19T10:12:15.521Z,22.41
2023-05-19T10:14:43.657Z,22.53
2023-05-19T10:17:13.670Z,22.72
2023-05-19T10:19:45.074Z,22.94
2023-05-19T10:22:13.119Z,23.05
2023-05-19T10:24:41.388Z,23.13
2023-05-19T10:27:14.378Z,23.22
2023-05-19T10:29:48.619Z,23.41
2023-05-19T10:32:25.005Z,23.49
2023-05-19T10:35:09.390Z,23.68
2023-05-19T10:38:05.577Z,23.81
2023-05-19T10:40:38.979Z,23.85
2023-05-19T10:43:17.671Z,23.95
2023-05-19T10:45:52.010Z,24.13
2023-05-19T10:48:22.117Z,24.47
2023-05-19T10:50:55.252Z,24.64
2023-05-19T10:53:31.716Z,24.78
2023-05-19T10:56:04.109Z,25.00
2023-05-19T10:58:58.780Z,25.20
2023-05-19T11:01:34.768Z,25.37
2023-05-19T11:04:10.687Z,25.47
2023-05-19T11:06:40.505Z,25.47
2023-05-19T11:09:17.945Z,25.29
2023-05-19T11:11:51.236Z,25.18
2023-05-19T11:14:32.586Z,25.18
2023-05-19T11:17:01.163Z,25.18
2023-05-19T11:19:31.432Z,25.25
2023-05-19T11:22:10.600Z,25.30
2023-05-19T11:24:50.137Z,25.44
2023-05-19T11:27:31.087Z,25.51
2023-05-19T11:30:11.775Z,25.54
2023-05-19T11:32:42.389Z,25.38
2023-05-19T11:35:11.275Z,25.21
2023-05-19T11:37:40.922Z,25.25
2023-05-19T11:40:09.455Z,25.21
2023-05-19T11:42:37.577Z,25.13
2023-05-19T11:45:06.832Z,25.21
2023-05-19T11:47:46.510Z,25.20
2023-05-19T11:50:20.738Z,25.41
2023-05-19T11:52:49.014Z,25.64
2023-05-19T11:55:24.192Z,25.83
2023-05-19T11:58:05.117Z,26.01
2023-05-19T12:00:40.036Z,26.12
2023-05-19T12:03:09.831Z,26.18
2023-05-19T12:05:50.007Z,26.34
2023-05-19T12:08:18.979Z,26.44
2023-05-19T12:10:52.891Z,26.42
2023-05-19T12:13:22.924Z,26.41
2023-05-19T12:15:53.425Z,27.02
2023-05-19T12:18:21.748Z,28.25
2023-05-19T12:20:49.982Z,29.57
2023-05-19T12:23:18.845Z,30.70
2023-05-19T12:25:47.730Z,31.65
2023-05-19T12:28:16.424Z,32.57
2023-05-19T12:30:51.965Z,33.40
2023-05-19T12:33:22.089Z,34.16
2023-05-19T12:35:51.475Z,34.71
2023-05-19T12:38:20.510Z,35.27
2023-05-19T12:40:50.678Z,36.00
2023-05-19T12:43:21.058Z,36.77
2023-05-19T12:45:49.616Z,37.49
2023-05-19T12:48:18.360Z,38.09
2023-05-19T12:50:46.740Z,37.82
2023-05-19T12:53:15.595Z,37.23
2023-05-19T12:55:45.215Z,37.14
2023-05-19T12:58:13.760Z,37.30
2023-05-19T13:00:45.081Z,37.79
2023-05-19T13:03:20.193Z,38.32
2023-05-19T13:05:51.335Z,37.83
2023-05-19T13:08:21.825Z,37.05
2023-05-19T13:10:50.392Z,36.34
2023-05-19T13:13:18.955Z,35.57
2023-05-19T13:15:50.196Z,34.63
2023-05-19T13:18:18.577Z,33.55
2023-05-19T13:20:47.414Z,32.33
2023-05-19T13:23:16.524Z,30.87
2023-05-19T13:25:44.633Z,29.37
2023-05-19T13:28:12.900Z,28.21
2023-05-19T13:30:41.995Z,27.40
2023-05-19T13:33:10.430Z,26.65
2023-05-19T13:35:39.202Z,25.84
2023-05-19T13:38:15.139Z,25.31
2023-05-19T13:40:44.617Z,24.81
2023-05-19T13:43:12.748Z,24.28
2023-05-19T13:45:42.862Z,23.77
2023-05-19T13:48:12.275Z,23.14
2023-05-19T13:50:40.401Z,22.67
2023-05-19T13:53:08.624Z,22.40
2023-05-19T13:55:37.267Z,22.16
2023-05-19T13:58:05.580Z,21.96
2023-05-19T14:00:35.689Z,21.69
2023-05-19T14:03:04.549Z,21.34
2023-05-19T14:05:33.272Z,21.14
2023-05-19T14:08:03.696Z,21.06
2023-05-19T14:10:32.041Z,21.06
2023-05-19T14:15:34.619Z,21.40
2023-05-19T14:18:03.644Z,21.64
2023-05-19T14:20:33.252Z,21.82
2023-05-19T14:23:01.529Z,21.92
2023-05-19T14:25:29.845Z,21.82
2023-05-19T14:27:58.084Z,21.71
2023-05-19T14:30:26.311Z,21.72
2023-05-19T14:32:54.515Z,21.72
2023-05-19T14:35:23.081Z,21.71
2023-05-19T14:37:51.532Z,21.92
2023-05-19T14:40:19.780Z,23.24
2023-05-19T14:42:47.787Z,24.94
2023-05-19T14:45:15.944Z,26.50
2023-05-19T14:47:44.208Z,27.99
2023-05-19T14:50:13.146Z,29.36
2023-05-19T14:52:43.589Z,30.60
2023-05-19T14:55:11.695Z,31.48
2023-05-19T14:57:39.914Z,32.25
2023-05-19T15:00:11.375Z,33.01
2023-05-19T15:02:39.640Z,33.46
2023-05-19T15:05:09.019Z,33.58
2023-05-19T15:07:37.973Z,33.92
2023-05-19T15:10:06.609Z,34.29
2023-05-19T15:12:34.831Z,34.44
2023-05-19T15:15:03.590Z,34.82
2023-05-19T15:17:31.594Z,35.10
2023-05-19T15:19:59.651Z,35.46
2023-05-19T15:22:27.699Z,35.82
2023-05-19T15:24:55.727Z,35.86
2023-05-19T15:27:24.089Z,35.99
2023-05-19T15:29:52.312Z,36.37
2023-05-19T15:32:20.825Z,36.95
2023-05-19T15:34:49.011Z,37.35
2023-05-19T15:37:17.067Z,37.92
2023-05-19T15:39:47.877Z,38.53
2023-05-19T15:42:16.384Z,38.46
2023-05-19T15:44:46.266Z,37.87
2023-05-19T15:47:14.606Z,37.43
2023-05-19T15:49:43.158Z,36.51
2023-05-19T15:52:11.324Z,35.21
2023-05-19T15:54:39.428Z,34.04
2023-05-19T15:57:07.624Z,32.74
2023-05-19T15:59:35.947Z,31.66
2023-05-19T16:02:04.671Z,30.90
2023-05-19T16:04:33.486Z,30.15
2023-05-19T16:07:01.539Z,29.42
2023-05-19T16:09:29.688Z,28.80
2023-05-19T16:11:57.800Z,28.19
2023-05-19T16:14:29.375Z,27.68
2023-05-19T16:16:57.697Z,27.22
2023-05-19T16:19:26.745Z,26.82
2023-05-19T16:21:54.841Z,26.38
2023-05-19T16:24:22.874Z,26.02
2023-05-19T16:26:53.274Z,25.67
2023-05-19T16:29:21.382Z,25.26
2023-05-19T16:31:49.617Z,24.96
2023-05-19T16:34:18.217Z,24.71
2023-05-19T16:36:46.409Z,24.48
2023-05-19T16:39:14.490Z,24.24
2023-05-19T16:41:42.530Z,24.02
2023-05-19T16:44:11.838Z,23.85
2023-05-19T16:46:40.657Z,23.75
2023-05-19T16:49:12.233Z,23.87
2023-05-19T16:51:53.237Z,24.37
2023-05-19T16:54:21.834Z,24.87
2023-05-19T16:56:53.164Z,25.12
2023-05-19T16:59:21.495Z,24.92
2023-05-19T17:01:50.137Z,24.64
2023-05-19T17:04:18.301Z,24.39
2023-05-19T17:06:46.716Z,24.05
2023-05-19T17:09:14.875Z,23.81
2023-05-19T17:11:45.397Z,23.44
2023-05-19T17:14:13.737Z,23.17
2023-05-19T17:16:41.894Z,22.95
2023-05-19T17:19:12.778Z,22.75
2023-05-19T17:21:41.080Z,22.53
2023-05-19T17:24:09.084Z,22.32
2023-05-19T17:26:39.432Z,22.13
2023-05-19T17:29:08.357Z,21.95
2023-05-19T17:31:36.613Z,21.74
2023-05-19T17:34:04.731Z,21.51
2023-05-19T17:36:34.290Z,21.24
2023-05-19T17:39:02.387Z,20.98
2023-05-19T17:41:30.728Z,20.76
2023-05-19T17:43:58.810Z,20.58
2023-05-19T17:46:26.820Z,20.40
2023-05-19T17:48:54.747Z,20.24
2023-05-19T17:51:23.436Z,20.07
2023-05-19T17:53:51.972Z,19.93
2023-05-19T17:56:22.658Z,19.78
2023-05-19T17:58:51.945Z,19.58
2023-05-19T18:01:23.855Z,19.49
2023-05-19T18:03:52.761Z,19.40
2023-05-19T18:06:21.345Z,19.31
2023-05-19T18:08:51.741Z,19.18
2023-05-19T18:11:21.443Z,19.08
2023-05-19T18:13:49.524Z,19.00
2023-05-19T18:16:17.830Z,18.93
2023-05-19T18:18:50.580Z,18.88
2023-05-19T18:21:19.238Z,18.81
2023-05-19T18:23:48.028Z,18.71
2023-05-19T18:26:17.609Z,18.65
2023-05-19T18:28:45.921Z,18.62
2023-05-19T18:31:19.888Z,18.52
2023-05-19T18:33:49.257Z,18.45
2023-05-19T18:36:17.837Z,18.36
2023-05-19T18:38:47.648Z,18.26
2023-05-19T18:41:15.794Z,18.17
2023-05-19T18:43:43.995Z,18.05
2023-05-19T18:46:13.665Z,17.95
2023-05-19T18:48:42.033Z,17.87
2023-05-19T18:51:10.338Z,17.67
2023-05-19T18:53:38.372Z,17.61
2023-05-19T18:56:07.171Z,17.56
2023-05-19T18:58:35.404Z,17.53
2023-05-19T19:01:03.794Z,17.48
2023-05-19T19:03:32.231Z,17.45
2023-05-19T19:06:00.529Z,17.40
2023-05-19T19:08:28.994Z,17.34
2023-05-19T19:11:00.352Z,17.28
2023-05-19T19:13:28.498Z,17.24
2023-05-19T19:15:57.327Z,17.19
2023-05-19T19:18:26.782Z,17.17
2023-05-19T19:20:57.418Z,17.14
2023-05-19T19:23:25.587Z,17.09
2023-05-19T19:25:54.135Z,17.04
2023-05-19T19:28:24.555Z,17.00
2023-05-19T19:30:53.062Z,16.97
2023-05-19T19:33:21.302Z,16.94
2023-05-19T19:35:49.429Z,16.90
2023-05-19T19:38:17.758Z,16.84
2023-05-19T19:40:45.954Z,16.80
2023-05-19T19:43:16.179Z,16.73
2023-05-19T19:45:44.271Z,16.64
2023-05-19T19:48:12.531Z,16.62
2023-05-19T19:50:40.824Z,16.56
2023-05-19T19:53:09.283Z,16.53
2023-05-19T19:55:37.958Z,16.45
2023-05-19T19:58:06.093Z,16.42
2023-05-19T20:00:34.648Z,16.33
2023-05-19T20:03:05.420Z,16.24
2023-05-19T20:05:38.079Z,16.21
2023-05-19T20:08:06.313Z,16.16
2023-05-19T20:10:34.491Z,16.12
2023-05-19T20:13:03.109Z,16.07
2023-05-19T20:15:31.711Z,16.02
2023-05-19T20:17:59.812Z,16.00
2023-05-19T20:20:27.918Z,15.97
2023-05-19T20:22:55.994Z,15.94
2023-05-19T20:25:24.548Z,15.89
2023-05-19T20:27:54.346Z,15.80
2023-05-19T20:30:22.382Z,15.75
2023-05-19T20:32:50.552Z,15.71
2023-05-19T20:35:18.693Z,15.66
2023-05-19T20:37:48.245Z,15.60
2023-05-19T20:40:16.504Z,15.55
2023-05-19T20:42:44.726Z,15.48
2023-05-19T20:45:12.931Z,15.44
2023-05-19T20:47:41.187Z,15.38
2023-05-19T20:50:09.462Z,15.34
2023-05-19T20:52:37.658Z,15.34
2023-05-19T20:55:07.819Z,15.32
2023-05-19T20:57:36.332Z,15.27
2023-05-19T21:00:04.716Z,15.23
2023-05-19T21:02:32.862Z,15.19
2023-05-19T21:05:01.163Z,15.15
2023-05-19T21:07:29.372Z,15.11
2023-05-19T21:09:58.008Z,15.05
2023-05-19T21:12:28.818Z,15.06
2023-05-19T21:14:57.205Z,15.04
2023-05-19T21:17:28.631Z,15.00
2023-05-19T21:19:59.684Z,15.00
2023-05-19T21:22:28.049Z,14.98
2023-05-19T21:24:57.343Z,14.98
2023-05-19T21:27:25.641Z,14.99
2023-05-19T21:29:54.378Z,14.97
2023-05-19T21:32:22.921Z,14.92
2023-05-19T21:34:51.007Z,14.87
2023-05-19T21:37:19.872Z,14.86
2023-05-19T21:39:48.832Z,14.81
2023-05-19T21:42:17.019Z,14.78
2023-05-19T21:44:45.042Z,14.76
2023-05-19T21:47:13.166Z,14.73
2023-05-19T21:49:41.620Z,14.70
2023-05-19T21:52:10.013Z,14.69
2023-05-19T21:54:38.196Z,14.65
2023-05-19T21:57:06.818Z,14.61
2023-05-19T21:59:36.254Z,14.59
2023-05-19T22:02:04.950Z,14.56
2023-05-19T22:04:33.686Z,14.53
2023-05-19T22:07:01.989Z,14.51
2023-05-19T22:09:33.524Z,14.51
2023-05-19T22:12:01.648Z,14.49
2023-05-19T22:14:29.689Z,14.48
2023-05-19T22:16:57.778Z,14.44
2023-05-19T22:19:28.184Z,14.41
2023-05-19T22:22:09.768Z,14.37
2023-05-19T22:24:41.406Z,14.33
2023-05-19T22:27:09.994Z,14.28
2023-05-19T22:29:39.031Z,14.21
2023-05-19T22:32:12.006Z,14.16
2023-05-19T22:34:40.571Z,14.08
2023-05-19T22:37:09.050Z,14.03
2023-05-19T22:39:38.469Z,14.03
2023-05-19T22:42:09.069Z,14.01
2023-05-19T22:44:37.003Z,13.97
2023-05-19T22:47:05.500Z,13.93
2023-05-19T22:49:33.564Z,13.89
2023-05-19T22:52:01.750Z,13.86
2023-05-19T22:54:29.828Z,13.82
2023-05-19T22:56:58.078Z,13.80
2023-05-19T22:59:26.216Z,13.75
2023-05-19T23:01:54.307Z,13.72
2023-05-19T23:04:22.635Z,13.70
2023-05-19T23:06:50.877Z,13.66
2023-05-19T23:09:19.058Z,13.62
2023-05-19T23:11:48.465Z,13.59
2023-05-19T23:14:18.592Z,13.56
2023-05-19T23:16:46.841Z,13.53
2023-05-19T23:19:15.307Z,13.51
2023-05-19T23:21:44.950Z,13.48
2023-05-19T23:24:13.429Z,13.45
2023-05-19T23:26:45.012Z,13.41
2023-05-19T23:29:13.819Z,13.39
2023-05-19T23:31:42.147Z,13.37
2023-05-19T23:34:10.362Z,13.36
2023-05-19T23:36:38.436Z,13.34
2023-05-19T23:39:06.615Z,13.32
2023-05-19T23:41:34.697Z,13.29
2023-05-19T23:44:02.826Z,13.28
2023-05-19T23:46:31.090Z,13.24
2023-05-19T23:48:59.322Z,13.22
2023-05-19T23:51:27.479Z,13.21
2023-05-19T23:53:55.518Z,13.21
2023-05-19T23:56:23.553Z,13.18
2023-05-19T23:58:53.939Z,13.12
